sensor_id;sensor_type;location;lat;lon;timestamp;P1;durP1;ratioP1;P2;durP2;ratioP2
45236;SDS011;30973;51.442;3.580;2023-07-02T00:01:48;13.23;;;6.90;;
45236;SDS011;30973;51.442;3.580;2023-07-02T00:04:15;10.63;;;5.85;;
45236;SDS011;30973;51.442;3.580;2023-07-02T00:06:46;10.70;;;5.80;;
45236;SDS011;30973;51.442;3.580;2023-07-02T00:09:13;12.50;;;5.80;;
45236;SDS011;30973;51.442;3.580;2023-07-02T00:11:41;11.80;;;6.95;;
45236;SDS011;30973;51.442;3.580;2023-07-02T00:14:08;11.15;;;5.63;;
45236;SDS011;30973;51.442;3.580;2023-07-02T00:16:39;9.90;;;5.88;;
45236;SDS011;30973;51.442;3.580;2023-07-02T00:19:06;15.13;;;6.05;;
45236;SDS011;30973;51.442;3.580;2023-07-02T00:21:32;13.77;;;6.75;;
45236;SDS011;30973;51.442;3.580;2023-07-02T00:23:59;11.38;;;5.60;;
45236;SDS011;30973;51.442;3.580;2023-07-02T00:26:26;12.63;;;5.70;;
45236;SDS011;30973;51.442;3.580;2023-07-02T00:28:54;12.00;;;5.97;;
45236;SDS011;30973;51.442;3.580;2023-07-02T00:31:21;13.45;;;6.28;;
45236;SDS011;30973;51.442;3.580;2023-07-02T00:33:48;12.27;;;6.07;;
45236;SDS011;30973;51.442;3.580;2023-07-02T00:36:15;10.93;;;6.25;;
45236;SDS011;30973;51.442;3.580;2023-07-02T00:38:46;12.18;;;6.55;;
45236;SDS011;30973;51.442;3.580;2023-07-02T00:41:13;13.07;;;6.50;;
45236;SDS011;30973;51.442;3.580;2023-07-02T00:43:40;12.27;;;6.63;;
45236;SDS011;30973;51.442;3.580;2023-07-02T00:46:16;15.32;;;7.32;;
45236;SDS011;30973;51.442;3.580;2023-07-02T00:48:53;15.25;;;6.80;;
45236;SDS011;30973;51.442;3.580;2023-07-02T00:51:20;11.98;;;6.60;;
45236;SDS011;30973;51.442;3.580;2023-07-02T00:53:47;11.93;;;6.95;;
45236;SDS011;30973;51.442;3.580;2023-07-02T00:56:14;14.70;;;6.60;;
45236;SDS011;30973;51.442;3.580;2023-07-02T00:58:42;16.75;;;6.50;;
45236;SDS011;30973;51.442;3.580;2023-07-02T01:01:17;15.48;;;7.00;;
45236;SDS011;30973;51.442;3.580;2023-07-02T01:03:51;12.20;;;7.07;;
45236;SDS011;30973;51.442;3.580;2023-07-02T01:06:25;16.27;;;6.85;;
45236;SDS011;30973;51.442;3.580;2023-07-02T01:08:53;14.13;;;7.00;;
45236;SDS011;30973;51.442;3.580;2023-07-02T01:11:21;14.77;;;7.38;;
45236;SDS011;30973;51.442;3.580;2023-07-02T01:13:48;15.52;;;7.10;;
45236;SDS011;30973;51.442;3.580;2023-07-02T01:16:16;14.07;;;6.40;;
45236;SDS011;30973;51.442;3.580;2023-07-02T01:18:43;14.82;;;7.05;;
45236;SDS011;30973;51.442;3.580;2023-07-02T01:21:10;14.70;;;7.05;;
45236;SDS011;30973;51.442;3.580;2023-07-02T01:23:36;11.05;;;6.78;;
45236;SDS011;30973;51.442;3.580;2023-07-02T01:26:03;16.35;;;7.22;;
45236;SDS011;30973;51.442;3.580;2023-07-02T01:28:36;12.52;;;6.88;;
45236;SDS011;30973;51.442;3.580;2023-07-02T01:31:04;18.55;;;7.05;;
45236;SDS011;30973;51.442;3.580;2023-07-02T01:33:31;13.20;;;6.97;;
45236;SDS011;30973;51.442;3.580;2023-07-02T01:35:58;15.07;;;6.38;;
45236;SDS011;30973;51.442;3.580;2023-07-02T01:38:24;14.40;;;6.40;;
45236;SDS011;30973;51.442;3.580;2023-07-02T01:40:51;19.40;;;8.00;;
45236;SDS011;30973;51.442;3.580;2023-07-02T01:43:18;15.35;;;6.93;;
45236;SDS011;30973;51.442;3.580;2023-07-02T01:45:45;16.20;;;6.82;;
45236;SDS011;30973;51.442;3.580;2023-07-02T01:48:12;12.02;;;6.45;;
45236;SDS011;30973;51.442;3.580;2023-07-02T01:50:39;14.02;;;6.40;;
45236;SDS011;30973;51.442;3.580;2023-07-02T01:53:06;13.98;;;6.75;;
45236;SDS011;30973;51.442;3.580;2023-07-02T01:55:32;15.10;;;7.38;;
45236;SDS011;30973;51.442;3.580;2023-07-02T01:57:59;14.15;;;6.63;;
45236;SDS011;30973;51.442;3.580;2023-07-02T02:00:26;15.80;;;6.82;;
45236;SDS011;30973;51.442;3.580;2023-07-02T02:02:52;11.70;;;7.13;;
45236;SDS011;30973;51.442;3.580;2023-07-02T02:05:19;15.73;;;7.25;;
45236;SDS011;30973;51.442;3.580;2023-07-02T02:07:48;15.23;;;6.95;;
45236;SDS011;30973;51.442;3.580;2023-07-02T02:10:14;17.30;;;6.80;;
45236;SDS011;30973;51.442;3.580;2023-07-02T02:12:41;14.85;;;7.75;;
45236;SDS011;30973;51.442;3.580;2023-07-02T02:15:08;16.15;;;7.65;;
45236;SDS011;30973;51.442;3.580;2023-07-02T02:17:34;15.63;;;7.10;;
45236;SDS011;30973;51.442;3.580;2023-07-02T02:20:02;19.77;;;7.95;;
45236;SDS011;30973;51.442;3.580;2023-07-02T02:22:32;15.23;;;7.30;;
45236;SDS011;30973;51.442;3.580;2023-07-02T02:24:58;16.77;;;8.00;;
45236;SDS011;30973;51.442;3.580;2023-07-02T02:27:26;18.65;;;7.60;;
45236;SDS011;30973;51.442;3.580;2023-07-02T02:29:53;17.67;;;7.45;;
45236;SDS011;30973;51.442;3.580;2023-07-02T02:32:20;15.93;;;7.15;;
45236;SDS011;30973;51.442;3.580;2023-07-02T02:34:48;18.50;;;7.60;;
45236;SDS011;30973;51.442;3.580;2023-07-02T02:37:14;16.55;;;7.38;;
45236;SDS011;30973;51.442;3.580;2023-07-02T02:39:42;14.75;;;7.00;;
45236;SDS011;30973;51.442;3.580;2023-07-02T02:42:09;18.83;;;7.38;;
45236;SDS011;30973;51.442;3.580;2023-07-02T02:44:36;16.42;;;7.85;;
45236;SDS011;30973;51.442;3.580;2023-07-02T02:47:02;17.25;;;7.90;;
45236;SDS011;30973;51.442;3.580;2023-07-02T02:49:31;17.73;;;8.48;;
45236;SDS011;30973;51.442;3.580;2023-07-02T02:51:58;18.27;;;7.65;;
45236;SDS011;30973;51.442;3.580;2023-07-02T02:54:24;20.30;;;8.32;;
45236;SDS011;30973;51.442;3.580;2023-07-02T02:56:51;16.83;;;8.15;;
45236;SDS011;30973;51.442;3.580;2023-07-02T02:59:17;16.65;;;7.85;;
45236;SDS011;30973;51.442;3.580;2023-07-02T03:01:44;16.15;;;8.10;;
45236;SDS011;30973;51.442;3.580;2023-07-02T03:04:11;17.38;;;8.18;;
45236;SDS011;30973;51.442;3.580;2023-07-02T03:06:37;15.05;;;7.32;;
45236;SDS011;30973;51.442;3.580;2023-07-02T03:09:05;14.88;;;7.40;;
45236;SDS011;30973;51.442;3.580;2023-07-02T03:11:32;18.17;;;7.32;;
45236;SDS011;30973;51.442;3.580;2023-07-02T03:13:59;18.67;;;7.15;;
45236;SDS011;30973;51.442;3.580;2023-07-02T03:16:25;17.27;;;8.25;;
45236;SDS011;30973;51.442;3.580;2023-07-02T03:18:52;17.80;;;7.80;;
45236;SDS011;30973;51.442;3.580;2023-07-02T03:21:19;12.85;;;6.40;;
45236;SDS011;30973;51.442;3.580;2023-07-02T03:23:45;16.80;;;7.03;;
45236;SDS011;30973;51.442;3.580;2023-07-02T03:26:12;13.45;;;7.10;;
45236;SDS011;30973;51.442;3.580;2023-07-02T03:28:38;14.65;;;6.75;;
45236;SDS011;30973;51.442;3.580;2023-07-02T03:31:05;12.20;;;6.43;;
45236;SDS011;30973;51.442;3.580;2023-07-02T03:33:32;14.43;;;6.47;;
45236;SDS011;30973;51.442;3.580;2023-07-02T03:35:59;15.38;;;6.38;;
45236;SDS011;30973;51.442;3.580;2023-07-02T03:38:26;14.07;;;6.22;;
45236;SDS011;30973;51.442;3.580;2023-07-02T03:40:52;11.90;;;6.53;;
45236;SDS011;30973;51.442;3.580;2023-07-02T03:43:19;14.85;;;6.88;;
45236;SDS011;30973;51.442;3.580;2023-07-02T03:45:45;13.65;;;7.03;;
45236;SDS011;30973;51.442;3.580;2023-07-02T03:48:12;13.63;;;6.90;;
45236;SDS011;30973;51.442;3.580;2023-07-02T03:50:38;12.38;;;6.03;;
45236;SDS011;30973;51.442;3.580;2023-07-02T03:53:05;12.43;;;6.57;;
45236;SDS011;30973;51.442;3.580;2023-07-02T03:55:31;14.63;;;6.47;;
45236;SDS011;30973;51.442;3.580;2023-07-02T03:57:58;12.43;;;5.88;;
45236;SDS011;30973;51.442;3.580;2023-07-02T04:00:25;11.98;;;6.03;;
45236;SDS011;30973;51.442;3.580;2023-07-02T04:02:51;16.33;;;7.75;;
45236;SDS011;30973;51.442;3.580;2023-07-02T04:05:18;11.85;;;5.60;;
45236;SDS011;30973;51.442;3.580;2023-07-02T04:07:46;16.17;;;6.30;;
45236;SDS011;30973;51.442;3.580;2023-07-02T04:10:12;14.48;;;6.35;;
45236;SDS011;30973;51.442;3.580;2023-07-02T04:12:39;13.77;;;6.10;;
45236;SDS011;30973;51.442;3.580;2023-07-02T04:15:06;14.30;;;6.22;;
45236;SDS011;30973;51.442;3.580;2023-07-02T04:17:33;14.82;;;6.63;;
45236;SDS011;30973;51.442;3.580;2023-07-02T04:20:00;17.90;;;7.00;;
45236;SDS011;30973;51.442;3.580;2023-07-02T04:22:28;17.80;;;7.05;;
45236;SDS011;30973;51.442;3.580;2023-07-02T04:24:54;16.98;;;7.22;;
45236;SDS011;30973;51.442;3.580;2023-07-02T04:27:28;12.52;;;6.70;;
45236;SDS011;30973;51.442;3.580;2023-07-02T04:30:14;13.32;;;6.25;;
45236;SDS011;30973;51.442;3.580;2023-07-02T04:32:41;13.95;;;6.15;;
45236;SDS011;30973;51.442;3.580;2023-07-02T04:35:08;14.43;;;6.30;;
45236;SDS011;30973;51.442;3.580;2023-07-02T04:37:35;12.68;;;5.78;;
45236;SDS011;30973;51.442;3.580;2023-07-02T04:40:02;11.65;;;5.93;;
45236;SDS011;30973;51.442;3.580;2023-07-02T04:42:33;13.05;;;5.60;;
45236;SDS011;30973;51.442;3.580;2023-07-02T04:45:07;12.68;;;5.53;;
45236;SDS011;30973;51.442;3.580;2023-07-02T04:47:34;12.52;;;4.93;;
45236;SDS011;30973;51.442;3.580;2023-07-02T04:50:01;10.70;;;5.35;;
45236;SDS011;30973;51.442;3.580;2023-07-02T04:52:28;10.73;;;5.00;;
45236;SDS011;30973;51.442;3.580;2023-07-02T04:54:55;10.88;;;4.82;;
45236;SDS011;30973;51.442;3.580;2023-07-02T04:57:22;9.52;;;4.65;;
45236;SDS011;30973;51.442;3.580;2023-07-02T04:59:49;11.57;;;5.63;;
45236;SDS011;30973;51.442;3.580;2023-07-02T05:02:15;10.73;;;4.60;;
45236;SDS011;30973;51.442;3.580;2023-07-02T05:04:42;9.77;;;4.88;;
45236;SDS011;30973;51.442;3.580;2023-07-02T05:07:08;11.68;;;4.72;;
45236;SDS011;30973;51.442;3.580;2023-07-02T05:09:35;12.77;;;5.30;;
45236;SDS011;30973;51.442;3.580;2023-07-02T05:12:01;10.73;;;5.18;;
45236;SDS011;30973;51.442;3.580;2023-07-02T05:14:28;12.90;;;4.40;;
45236;SDS011;30973;51.442;3.580;2023-07-02T05:16:54;9.95;;;4.65;;
45236;SDS011;30973;51.442;3.580;2023-07-02T05:19:21;12.93;;;5.10;;
45236;SDS011;30973;51.442;3.580;2023-07-02T05:21:48;9.25;;;4.95;;
45236;SDS011;30973;51.442;3.580;2023-07-02T05:24:14;10.30;;;4.60;;
45236;SDS011;30973;51.442;3.580;2023-07-02T05:26:41;11.43;;;4.32;;
45236;SDS011;30973;51.442;3.580;2023-07-02T05:29:07;11.93;;;4.35;;
45236;SDS011;30973;51.442;3.580;2023-07-02T05:31:34;10.35;;;4.38;;
45236;SDS011;30973;51.442;3.580;2023-07-02T05:34:01;10.85;;;4.63;;
45236;SDS011;30973;51.442;3.580;2023-07-02T05:36:27;12.90;;;4.60;;
45236;SDS011;30973;51.442;3.580;2023-07-02T05:38:54;8.25;;;3.90;;
45236;SDS011;30973;51.442;3.580;2023-07-02T05:41:20;11.23;;;4.28;;
45236;SDS011;30973;51.442;3.580;2023-07-02T05:43:47;10.73;;;4.43;;
45236;SDS011;30973;51.442;3.580;2023-07-02T05:46:14;11.55;;;4.57;;
45236;SDS011;30973;51.442;3.580;2023-07-02T05:48:41;11.32;;;4.35;;
45236;SDS011;30973;51.442;3.580;2023-07-02T05:51:08;10.02;;;4.55;;
45236;SDS011;30973;51.442;3.580;2023-07-02T05:53:36;10.55;;;5.15;;
45236;SDS011;30973;51.442;3.580;2023-07-02T05:56:03;8.40;;;4.43;;
45236;SDS011;30973;51.442;3.580;2023-07-02T05:58:30;10.85;;;4.38;;
45236;SDS011;30973;51.442;3.580;2023-07-02T06:01:12;11.38;;;4.40;;
45236;SDS011;30973;51.442;3.580;2023-07-02T06:03:39;8.10;;;4.50;;
45236;SDS011;30973;51.442;3.580;2023-07-02T06:06:06;8.60;;;3.97;;
45236;SDS011;30973;51.442;3.580;2023-07-02T06:08:32;7.97;;;4.40;;
45236;SDS011;30973;51.442;3.580;2023-07-02T06:10:59;8.48;;;4.15;;
45236;SDS011;30973;51.442;3.580;2023-07-02T06:13:26;7.65;;;4.07;;
45236;SDS011;30973;51.442;3.580;2023-07-02T06:15:52;8.23;;;4.05;;
45236;SDS011;30973;51.442;3.580;2023-07-02T06:18:19;9.73;;;4.40;;
45236;SDS011;30973;51.442;3.580;2023-07-02T06:20:46;7.50;;;4.22;;
45236;SDS011;30973;51.442;3.580;2023-07-02T06:23:13;11.55;;;5.05;;
45236;SDS011;30973;51.442;3.580;2023-07-02T06:25:39;11.60;;;4.60;;
45236;SDS011;30973;51.442;3.580;2023-07-02T06:28:06;10.60;;;4.60;;
45236;SDS011;30973;51.442;3.580;2023-07-02T06:30:32;14.20;;;4.88;;
45236;SDS011;30973;51.442;3.580;2023-07-02T06:32:59;10.18;;;5.03;;
45236;SDS011;30973;51.442;3.580;2023-07-02T06:35:25;11.38;;;5.13;;
45236;SDS011;30973;51.442;3.580;2023-07-02T06:37:52;11.48;;;5.00;;
45236;SDS011;30973;51.442;3.580;2023-07-02T06:40:20;10.93;;;4.95;;
45236;SDS011;30973;51.442;3.580;2023-07-02T06:42:46;10.50;;;4.95;;
45236;SDS011;30973;51.442;3.580;2023-07-02T06:45:13;11.60;;;5.63;;
45236;SDS011;30973;51.442;3.580;2023-07-02T06:47:39;13.20;;;5.03;;
45236;SDS011;30973;51.442;3.580;2023-07-02T06:50:06;9.93;;;5.40;;
45236;SDS011;30973;51.442;3.580;2023-07-02T06:52:33;13.45;;;5.70;;
45236;SDS011;30973;51.442;3.580;2023-07-02T06:54:59;11.63;;;5.90;;
45236;SDS011;30973;51.442;3.580;2023-07-02T06:57:26;11.15;;;5.65;;
45236;SDS011;30973;51.442;3.580;2023-07-02T06:59:56;14.75;;;5.70;;
45236;SDS011;30973;51.442;3.580;2023-07-02T07:02:26;12.05;;;5.93;;
45236;SDS011;30973;51.442;3.580;2023-07-02T07:04:53;16.42;;;6.70;;
45236;SDS011;30973;51.442;3.580;2023-07-02T07:07:20;14.75;;;5.80;;
45236;SDS011;30973;51.442;3.580;2023-07-02T07:09:47;13.80;;;6.15;;
45236;SDS011;30973;51.442;3.580;2023-07-02T07:12:13;15.48;;;6.78;;
45236;SDS011;30973;51.442;3.580;2023-07-02T07:14:40;12.20;;;5.90;;
45236;SDS011;30973;51.442;3.580;2023-07-02T07:17:07;14.68;;;6.07;;
45236;SDS011;30973;51.442;3.580;2023-07-02T07:19:35;11.45;;;6.43;;
45236;SDS011;30973;51.442;3.580;2023-07-02T07:22:01;14.90;;;6.00;;
45236;SDS011;30973;51.442;3.580;2023-07-02T07:24:28;14.48;;;6.55;;
45236;SDS011;30973;51.442;3.580;2023-07-02T07:26:54;12.38;;;6.57;;
45236;SDS011;30973;51.442;3.580;2023-07-02T07:29:21;22.55;;;6.95;;
45236;SDS011;30973;51.442;3.580;2023-07-02T07:31:48;13.45;;;7.30;;
45236;SDS011;30973;51.442;3.580;2023-07-02T07:34:15;18.83;;;9.05;;
45236;SDS011;30973;51.442;3.580;2023-07-02T07:36:41;18.85;;;9.93;;
45236;SDS011;30973;51.442;3.580;2023-07-02T07:39:08;20.38;;;9.52;;
45236;SDS011;30973;51.442;3.580;2023-07-02T07:41:34;20.52;;;9.25;;
45236;SDS011;30973;51.442;3.580;2023-07-02T07:44:01;17.75;;;8.13;;
45236;SDS011;30973;51.442;3.580;2023-07-02T07:46:27;22.67;;;9.07;;
45236;SDS011;30973;51.442;3.580;2023-07-02T07:48:54;19.13;;;8.05;;
45236;SDS011;30973;51.442;3.580;2023-07-02T07:51:21;16.13;;;7.18;;
45236;SDS011;30973;51.442;3.580;2023-07-02T07:53:47;14.77;;;7.03;;
45236;SDS011;30973;51.442;3.580;2023-07-02T07:56:14;14.77;;;7.20;;
45236;SDS011;30973;51.442;3.580;2023-07-02T07:58:41;15.15;;;7.30;;
45236;SDS011;30973;51.442;3.580;2023-07-02T08:01:07;17.23;;;7.72;;
45236;SDS011;30973;51.442;3.580;2023-07-02T08:03:36;16.77;;;6.88;;
45236;SDS011;30973;51.442;3.580;2023-07-02T08:06:03;14.48;;;7.32;;
45236;SDS011;30973;51.442;3.580;2023-07-02T08:08:29;19.45;;;7.90;;
45236;SDS011;30973;51.442;3.580;2023-07-02T08:10:56;19.48;;;7.90;;
45236;SDS011;30973;51.442;3.580;2023-07-02T08:13:22;13.98;;;6.95;;
45236;SDS011;30973;51.442;3.580;2023-07-02T08:15:49;15.15;;;7.07;;
45236;SDS011;30973;51.442;3.580;2023-07-02T08:18:16;16.75;;;6.18;;
45236;SDS011;30973;51.442;3.580;2023-07-02T08:20:42;14.52;;;6.53;;
45236;SDS011;30973;51.442;3.580;2023-07-02T08:23:09;12.82;;;6.18;;
45236;SDS011;30973;51.442;3.580;2023-07-02T08:25:36;14.18;;;6.25;;
45236;SDS011;30973;51.442;3.580;2023-07-02T08:28:02;16.08;;;6.57;;
45236;SDS011;30973;51.442;3.580;2023-07-02T08:30:29;16.67;;;6.25;;
45236;SDS011;30973;51.442;3.580;2023-07-02T08:32:55;10.80;;;5.72;;
45236;SDS011;30973;51.442;3.580;2023-07-02T08:35:22;14.20;;;6.28;;
45236;SDS011;30973;51.442;3.580;2023-07-02T08:37:49;16.45;;;6.00;;
45236;SDS011;30973;51.442;3.580;2023-07-02T08:40:16;12.50;;;5.63;;
45236;SDS011;30973;51.442;3.580;2023-07-02T08:42:45;16.08;;;6.32;;
45236;SDS011;30973;51.442;3.580;2023-07-02T08:45:13;12.50;;;5.20;;
45236;SDS011;30973;51.442;3.580;2023-07-02T08:47:40;14.18;;;5.90;;
45236;SDS011;30973;51.442;3.580;2023-07-02T08:50:07;12.30;;;5.50;;
45236;SDS011;30973;51.442;3.580;2023-07-02T08:52:33;15.95;;;5.40;;
45236;SDS011;30973;51.442;3.580;2023-07-02T08:55:00;11.32;;;5.47;;
45236;SDS011;30973;51.442;3.580;2023-07-02T08:57:26;14.38;;;6.20;;
45236;SDS011;30973;51.442;3.580;2023-07-02T08:59:53;13.05;;;5.43;;
45236;SDS011;30973;51.442;3.580;2023-07-02T09:02:29;11.77;;;5.47;;
45236;SDS011;30973;51.442;3.580;2023-07-02T09:05:02;17.90;;;5.90;;
45236;SDS011;30973;51.442;3.580;2023-07-02T09:07:30;15.32;;;5.22;;
45236;SDS011;30973;51.442;3.580;2023-07-02T09:09:56;11.73;;;5.30;;
45236;SDS011;30973;51.442;3.580;2023-07-02T09:14:57;15.18;;;5.28;;
45236;SDS011;30973;51.442;3.580;2023-07-02T09:17:30;11.45;;;5.40;;
45236;SDS011;30973;51.442;3.580;2023-07-02T09:19:58;14.48;;;5.50;;
45236;SDS011;30973;51.442;3.580;2023-07-02T09:22:27;12.98;;;5.13;;
45236;SDS011;30973;51.442;3.580;2023-07-02T09:24:54;10.27;;;4.95;;
45236;SDS011;30973;51.442;3.580;2023-07-02T09:27:21;10.50;;;4.95;;
45236;SDS011;30973;51.442;3.580;2023-07-02T09:29:51;13.07;;;5.13;;
45236;SDS011;30973;51.442;3.580;2023-07-02T09:32:25;12.90;;;4.68;;
45236;SDS011;30973;51.442;3.580;2023-07-02T09:37:19;11.75;;;5.32;;
45236;SDS011;30973;51.442;3.580;2023-07-02T09:39:47;11.13;;;4.97;;
45236;SDS011;30973;51.442;3.580;2023-07-02T09:42:15;11.45;;;5.38;;
45236;SDS011;30973;51.442;3.580;2023-07-02T09:44:43;11.43;;;5.05;;
45236;SDS011;30973;51.442;3.580;2023-07-02T09:47:10;13.15;;;5.38;;
45236;SDS011;30973;51.442;3.580;2023-07-02T09:49:37;10.63;;;5.20;;
45236;SDS011;30973;51.442;3.580;2023-07-02T09:52:08;10.48;;;5.35;;
45236;SDS011;30973;51.442;3.580;2023-07-02T09:54:36;13.07;;;5.53;;
45236;SDS011;30973;51.442;3.580;2023-07-02T09:57:03;9.38;;;5.35;;
45236;SDS011;30973;51.442;3.580;2023-07-02T09:59:30;13.07;;;5.40;;
45236;SDS011;30973;51.442;3.580;2023-07-02T10:01:57;14.35;;;5.53;;
45236;SDS011;30973;51.442;3.580;2023-07-02T10:04:24;12.00;;;5.03;;
45236;SDS011;30973;51.442;3.580;2023-07-02T10:06:52;12.57;;;5.07;;
45236;SDS011;30973;51.442;3.580;2023-07-02T10:09:19;10.55;;;5.05;;
45236;SDS011;30973;51.442;3.580;2023-07-02T10:11:46;10.77;;;4.55;;
45236;SDS011;30973;51.442;3.580;2023-07-02T10:14:13;9.95;;;5.05;;
45236;SDS011;30973;51.442;3.580;2023-07-02T10:16:50;11.43;;;5.00;;
45236;SDS011;30973;51.442;3.580;2023-07-02T10:19:17;12.82;;;5.18;;
45236;SDS011;30973;51.442;3.580;2023-07-02T10:21:44;12.75;;;5.40;;
45236;SDS011;30973;51.442;3.580;2023-07-02T10:24:16;11.90;;;5.40;;
45236;SDS011;30973;51.442;3.580;2023-07-02T10:26:57;11.98;;;5.35;;
45236;SDS011;30973;51.442;3.580;2023-07-02T10:29:24;11.55;;;5.13;;
45236;SDS011;30973;51.442;3.580;2023-07-02T10:31:51;11.65;;;5.47;;
45236;SDS011;30973;51.442;3.580;2023-07-02T10:34:32;11.70;;;5.32;;
45236;SDS011;30973;51.442;3.580;2023-07-02T10:37:00;12.85;;;5.65;;
45236;SDS011;30973;51.442;3.580;2023-07-02T10:39:27;11.23;;;5.25;;
45236;SDS011;30973;51.442;3.580;2023-07-02T10:42:05;10.45;;;5.25;;
45236;SDS011;30973;51.442;3.580;2023-07-02T10:44:32;13.52;;;5.65;;
45236;SDS011;30973;51.442;3.580;2023-07-02T10:46:59;10.18;;;5.32;;
45236;SDS011;30973;51.442;3.580;2023-07-02T10:49:35;11.52;;;5.45;;
45236;SDS011;30973;51.442;3.580;2023-07-02T10:52:02;12.60;;;5.55;;
45236;SDS011;30973;51.442;3.580;2023-07-02T10:54:40;12.40;;;5.43;;
45236;SDS011;30973;51.442;3.580;2023-07-02T10:57:09;17.17;;;5.85;;
45236;SDS011;30973;51.442;3.580;2023-07-02T10:59:36;13.18;;;5.30;;
45236;SDS011;30973;51.442;3.580;2023-07-02T11:02:03;12.05;;;5.40;;
45236;SDS011;30973;51.442;3.580;2023-07-02T11:04:30;12.52;;;5.50;;
45236;SDS011;30973;51.442;3.580;2023-07-02T11:06:57;14.15;;;5.88;;
45236;SDS011;30973;51.442;3.580;2023-07-02T11:09:24;13.70;;;5.75;;
45236;SDS011;30973;51.442;3.580;2023-07-02T11:11:51;12.93;;;5.80;;
45236;SDS011;30973;51.442;3.580;2023-07-02T11:14:28;13.77;;;5.82;;
45236;SDS011;30973;51.442;3.580;2023-07-02T11:16:55;11.73;;;5.95;;
45236;SDS011;30973;51.442;3.580;2023-07-02T11:19:22;12.57;;;5.90;;
45236;SDS011;30973;51.442;3.580;2023-07-02T11:21:52;13.38;;;5.60;;
45236;SDS011;30973;51.442;3.580;2023-07-02T11:24:31;15.68;;;6.57;;
45236;SDS011;30973;51.442;3.580;2023-07-02T11:26:59;14.45;;;5.72;;
45236;SDS011;30973;51.442;3.580;2023-07-02T11:29:26;11.57;;;5.70;;
45236;SDS011;30973;51.442;3.580;2023-07-02T11:31:53;13.98;;;6.47;;
45236;SDS011;30973;51.442;3.580;2023-07-02T11:34:22;12.93;;;6.20;;
45236;SDS011;30973;51.442;3.580;2023-07-02T11:36:51;12.90;;;5.55;;
45236;SDS011;30973;51.442;3.580;2023-07-02T11:39:20;14.98;;;6.30;;
45236;SDS011;30973;51.442;3.580;2023-07-02T11:41:47;10.50;;;5.57;;
45236;SDS011;30973;51.442;3.580;2023-07-02T11:44:14;14.95;;;6.50;;
45236;SDS011;30973;51.442;3.580;2023-07-02T11:46:42;15.25;;;6.18;;
45236;SDS011;30973;51.442;3.580;2023-07-02T11:49:09;11.30;;;5.95;;
45236;SDS011;30973;51.442;3.580;2023-07-02T11:51:36;16.83;;;5.90;;
45236;SDS011;30973;51.442;3.580;2023-07-02T11:54:03;11.82;;;6.18;;
45236;SDS011;30973;51.442;3.580;2023-07-02T11:56:30;12.57;;;5.93;;
45236;SDS011;30973;51.442;3.580;2023-07-02T11:58:57;16.20;;;6.60;;
45236;SDS011;30973;51.442;3.580;2023-07-02T12:01:24;9.93;;;5.07;;
45236;SDS011;30973;51.442;3.580;2023-07-02T12:03:50;12.85;;;5.95;;
45236;SDS011;30973;51.442;3.580;2023-07-02T12:06:17;10.73;;;5.70;;
45236;SDS011;30973;51.442;3.580;2023-07-02T12:08:44;12.40;;;5.82;;
45236;SDS011;30973;51.442;3.580;2023-07-02T12:11:10;11.50;;;5.95;;
45236;SDS011;30973;51.442;3.580;2023-07-02T12:13:37;13.43;;;5.70;;
45236;SDS011;30973;51.442;3.580;2023-07-02T12:16:03;13.88;;;6.25;;
45236;SDS011;30973;51.442;3.580;2023-07-02T12:18:30;16.42;;;6.47;;
45236;SDS011;30973;51.442;3.580;2023-07-02T12:20:57;16.10;;;6.28;;
45236;SDS011;30973;51.442;3.580;2023-07-02T12:23:23;10.80;;;5.22;;
45236;SDS011;30973;51.442;3.580;2023-07-02T12:25:50;12.45;;;5.28;;
45236;SDS011;30973;51.442;3.580;2023-07-02T12:28:17;10.40;;;5.13;;
45236;SDS011;30973;51.442;3.580;2023-07-02T12:30:44;14.15;;;5.60;;
45236;SDS011;30973;51.442;3.580;2023-07-02T12:33:11;16.48;;;5.72;;
45236;SDS011;30973;51.442;3.580;2023-07-02T12:35:37;8.95;;;5.43;;
45236;SDS011;30973;51.442;3.580;2023-07-02T12:38:04;9.07;;;5.30;;
45236;SDS011;30973;51.442;3.580;2023-07-02T12:40:33;13.02;;;5.45;;
45236;SDS011;30973;51.442;3.580;2023-07-02T12:43:00;15.25;;;6.07;;
45236;SDS011;30973;51.442;3.580;2023-07-02T12:45:26;10.05;;;5.60;;
45236;SDS011;30973;51.442;3.580;2023-07-02T12:47:53;11.02;;;5.60;;
45236;SDS011;30973;51.442;3.580;2023-07-02T12:50:20;12.65;;;5.53;;
45236;SDS011;30973;51.442;3.580;2023-07-02T12:52:47;14.02;;;5.90;;
45236;SDS011;30973;51.442;3.580;2023-07-02T12:55:14;13.25;;;6.10;;
45236;SDS011;30973;51.442;3.580;2023-07-02T12:57:40;12.27;;;5.97;;
45236;SDS011;30973;51.442;3.580;2023-07-02T13:00:07;15.40;;;5.60;;
45236;SDS011;30973;51.442;3.580;2023-07-02T13:02:35;11.75;;;5.70;;
45236;SDS011;30973;51.442;3.580;2023-07-02T13:05:12;14.98;;;5.85;;
45236;SDS011;30973;51.442;3.580;2023-07-02T13:07:39;13.93;;;5.88;;
45236;SDS011;30973;51.442;3.580;2023-07-02T13:10:05;12.88;;;5.95;;
45236;SDS011;30973;51.442;3.580;2023-07-02T13:12:32;13.57;;;6.30;;
45236;SDS011;30973;51.442;3.580;2023-07-02T13:14:59;16.25;;;5.78;;
45236;SDS011;30973;51.442;3.580;2023-07-02T13:17:25;11.95;;;5.88;;
45236;SDS011;30973;51.442;3.580;2023-07-02T13:19:52;13.07;;;5.95;;
45236;SDS011;30973;51.442;3.580;2023-07-02T13:22:19;12.05;;;6.03;;
45236;SDS011;30973;51.442;3.580;2023-07-02T13:24:46;13.00;;;6.18;;
45236;SDS011;30973;51.442;3.580;2023-07-02T13:27:15;10.63;;;5.63;;
45236;SDS011;30973;51.442;3.580;2023-07-02T13:29:44;10.10;;;5.72;;
45236;SDS011;30973;51.442;3.580;2023-07-02T13:32:11;13.95;;;6.20;;
45236;SDS011;30973;51.442;3.580;2023-07-02T13:34:37;12.93;;;6.05;;
45236;SDS011;30973;51.442;3.580;2023-07-02T13:37:04;14.13;;;6.65;;
45236;SDS011;30973;51.442;3.580;2023-07-02T13:39:31;13.82;;;6.72;;
45236;SDS011;30973;51.442;3.580;2023-07-02T13:41:58;14.95;;;5.95;;
45236;SDS011;30973;51.442;3.580;2023-07-02T13:44:24;11.63;;;5.40;;
45236;SDS011;30973;51.442;3.580;2023-07-02T13:46:51;15.75;;;5.90;;
45236;SDS011;30973;51.442;3.580;2023-07-02T13:49:19;10.68;;;5.80;;
45236;SDS011;30973;51.442;3.580;2023-07-02T13:51:47;15.52;;;5.95;;
45236;SDS011;30973;51.442;3.580;2023-07-02T13:54:16;13.38;;;6.43;;
45236;SDS011;30973;51.442;3.580;2023-07-02T13:56:47;10.68;;;6.03;;
45236;SDS011;30973;51.442;3.580;2023-07-02T13:59:16;12.07;;;5.72;;
45236;SDS011;30973;51.442;3.580;2023-07-02T14:01:43;13.18;;;5.70;;
45236;SDS011;30973;51.442;3.580;2023-07-02T14:04:10;13.60;;;6.07;;
45236;SDS011;30973;51.442;3.580;2023-07-02T14:06:37;10.18;;;5.60;;
45236;SDS011;30973;51.442;3.580;2023-07-02T14:09:04;12.40;;;5.78;;
45236;SDS011;30973;51.442;3.580;2023-07-02T14:11:35;14.85;;;5.80;;
45236;SDS011;30973;51.442;3.580;2023-07-02T14:14:01;13.75;;;5.90;;
45236;SDS011;30973;51.442;3.580;2023-07-02T14:16:28;11.45;;;5.47;;
45236;SDS011;30973;51.442;3.580;2023-07-02T14:18:55;9.65;;;4.93;;
45236;SDS011;30973;51.442;3.580;2023-07-02T14:21:21;10.25;;;4.70;;
45236;SDS011;30973;51.442;3.580;2023-07-02T14:23:48;10.98;;;5.30;;
45236;SDS011;30973;51.442;3.580;2023-07-02T14:26:15;9.82;;;5.00;;
45236;SDS011;30973;51.442;3.580;2023-07-02T14:28:41;14.35;;;5.05;;
45236;SDS011;30973;51.442;3.580;2023-07-02T14:31:08;11.00;;;5.15;;
45236;SDS011;30973;51.442;3.580;2023-07-02T14:33:35;12.02;;;5.20;;
45236;SDS011;30973;51.442;3.580;2023-07-02T14:36:03;9.98;;;4.88;;
45236;SDS011;30973;51.442;3.580;2023-07-02T14:38:30;13.93;;;5.53;;
45236;SDS011;30973;51.442;3.580;2023-07-02T14:40:56;11.65;;;4.93;;
45236;SDS011;30973;51.442;3.580;2023-07-02T14:43:24;11.68;;;5.20;;